Time;durP1;ratioP1;P1;durP2;ratioP2;P2;SDS_P1;SDS_P2;PMS_P1;PMS_P2;Temp;Humidity;BMP_temperature;BMP_pressure;BME280_temperature;BME280_humidity;BME280_pressure;Samples;Min_cycle;Max_cycle;Signal;HPM_P1;HPM_P2
2022/10/17 00:03:23;;;;;;;9.35;6.05;;;;;;;11.50;50.68;102696.84;5077423;27;20413;-61
2022/10/17 00:05:49;;;;;;;9.60;5.65;;;;;;;11.45;50.79;102694.59;5026551;28;20403;-62
2022/10/17 00:08:17;;;;;;;8.97;5.63;;;;;;;11.43;50.55;102708.94;5027032;28;20398;-62
2022/10/17 00:10:42;;;;;;;9.77;6.25;;;;;;;11.39;50.78;102703.03;5026599;28;20388;-61
2022/10/17 00:13:09;;;;;;;10.73;5.90;;;;;;;11.38;50.72;102705.81;5026836;28;20387;-62
2022/10/17 00:15:35;;;;;;;8.52;5.70;;;;;;;11.36;51.02;102708.63;5026521;28;20411;-62
2022/10/17 00:18:00;;;;;;;10.93;6.00;;;;;;;11.31;50.93;102702.84;5026827;28;20383;-63
2022/10/17 00:20:56;;;;;;;7.78;6.00;;;;;;;11.23;51.19;102713.25;5077641;27;20915;-61
2022/10/17 00:23:21;;;;;;;8.43;5.80;;;;;;;11.16;51.14;102707.56;5046615;28;20398;-62
2022/10/17 00:25:56;;;;;;;10.13;5.83;;;;;;;11.12;51.14;102714.13;5046523;28;21031;-61
2022/10/17 00:28:21;;;;;;;8.00;5.68;;;;;;;10.99;51.71;102719.56;5047034;28;20378;-61
2022/10/17 00:30:54;;;;;;;8.67;5.77;;;;;;;10.99;51.60;102719.56;5046763;28;20760;-61
2022/10/17 00:33:20;;;;;;;7.05;5.32;;;;;;;10.91;51.54;102708.72;5046430;28;20878;-61
2022/10/17 00:35:45;;;;;;;8.97;5.90;;;;;;;10.94;51.52;102713.78;5046359;28;20912;-61
2022/10/17 00:40:36;;;;;;;9.48;6.15;;;;;;;10.93;51.64;102730.69;5084065;27;20409;-62
2022/10/17 00:43:02;;;;;;;8.35;5.95;;;;;;;10.92;51.80;102726.34;5046432;28;20413;-60
2022/10/17 00:45:56;;;;;;;9.68;5.75;;;;;;;10.95;51.55;102734.06;5082024;27;20911;-60
2022/10/17 00:48:24;;;;;;;8.93;5.70;;;;;;;10.94;51.63;102739.50;5046827;28;20409;-60
2022/10/17 00:50:49;;;;;;;9.00;5.75;;;;;;;10.89;51.80;102732.75;5046759;28;20382;-61
2022/10/17 00:53:17;;;;;;;8.93;5.65;;;;;;;10.90;51.56;102733.59;5026977;28;20414;-60
2022/10/17 00:55:52;;;;;;;10.53;6.53;;;;;;;10.84;51.50;102728.75;5038010;28;20381;-60
2022/10/17 00:58:19;;;;;;;8.60;6.00;;;;;;;10.84;51.36;102731.41;5032670;28;20385;-60
2022/10/17 01:00:47;;;;;;;13.00;6.20;;;;;;;10.81;51.45;102729.00;5041467;28;20384;-60
2022/10/17 01:03:13;;;;;;;8.57;5.55;;;;;;;10.78;51.70;102731.91;5026477;28;20965;-61
2022/10/17 01:05:40;;;;;;;9.93;5.90;;;;;;;10.80;51.37;102740.56;5029373;28;20413;-61
2022/10/17 01:08:37;;;;;;;9.32;5.50;;;;;;;10.74;51.64;102738.41;5075008;27;20792;-61
2022/10/17 01:11:38;;;;;;;8.23;5.57;;;;;;;10.66;51.48;102723.09;5027066;28;20399;-61
2022/10/17 01:14:47;;;;;;;8.07;5.70;;;;;;;10.61;51.57;102728.78;5079998;27;20413;-61
2022/10/17 01:17:31;;;;;;;10.33;5.80;;;;;;;10.58;51.53;102726.34;5013302;28;20415;-62
2022/10/17 01:20:25;;;;;;;10.65;5.70;;;;;;;10.59;51.97;102732.50;5027037;28;20397;-61
2022/10/17 01:23:38;;;;;;;8.93;5.88;;;;;;;10.57;51.66;102734.41;5006797;28;20408;-61
2022/10/17 01:26:26;;;;;;;7.17;5.50;;;;;;;10.54;51.67;102732.88;5013100;28;20438;-61
2022/10/17 01:29:13;;;;;;;8.98;5.47;;;;;;;10.55;51.72;102737.19;5026566;28;20383;-61
2022/10/17 01:35:17;;;;;;;8.77;5.93;;;;;;;10.52;52.17;102740.94;5084248;27;20402;-61
2022/10/17 01:37:48;;;;;;;8.02;6.30;;;;;;;10.51;51.82;102741.91;5024147;28;20411;-61
2022/10/17 01:40:24;;;;;;;13.57;6.50;;;;;;;10.48;52.12;102741.31;5020607;28;20400;-61
2022/10/17 01:43:03;;;;;;;8.73;5.67;;;;;;;10.47;51.92;102740.44;5020661;28;20389;-61
2022/10/17 01:45:40;;;;;;;9.15;6.00;;;;;;;10.44;52.10;102746.00;5010628;28;20389;-61
2022/10/17 01:50:52;;;;;;;10.30;6.50;;;;;;;10.44;51.85;102748.66;5075831;27;20421;-61
2022/10/17 01:54:19;;;;;;;9.13;6.82;;;;;;;10.43;52.14;102751.44;5022903;28;20409;-61
2022/10/17 01:59:03;;;;;;;8.13;6.70;;;;;;;10.37;52.25;102759.84;5079615;27;20405;-61
2022/10/17 02:01:30;;;;;;;8.95;6.53;;;;;;;10.37;52.01;102771.31;5032709;28;20497;-60
2022/10/17 02:03:58;;;;;;;9.73;6.93;;;;;;;10.36;52.20;102766.13;5042860;28;20385;-61
2022/10/17 02:07:58;;;;;;;10.15;6.93;;;;;;;10.35;52.43;102765.25;5085289;27;20411;-60
2022/10/17 02:12:10;;;;;;;12.93;7.70;;;;;;;10.32;52.29;102763.69;5071264;27;20923;-61
2022/10/17 02:15:14;;;;;;;10.55;7.75;;;;;;;10.32;52.43;102774.31;5067183;27;20418;-62
2022/10/17 02:17:58;;;;;;;10.70;7.53;;;;;;;10.33;52.52;102767.19;5013572;28;20410;-61
2022/10/17 02:20:57;;;;;;;10.73;7.32;;;;;;;10.32;52.44;102768.16;5026657;28;20388;-60
2022/10/17 02:26:32;;;;;;;10.85;6.78;;;;;;;10.25;52.53;102773.03;5078195;27;20413;-60
2022/10/17 02:29:27;;;;;;;8.97;6.43;;;;;;;10.25;52.24;102777.50;5045308;28;20420;-61
2022/10/17 02:32:11;;;;;;;9.80;6.65;;;;;;;10.20;52.26;102783.16;5047029;28;20467;-62
2022/10/17 02:35:15;;;;;;;16.13;10.13;;;;;;;10.19;52.80;102788.56;5086378;27;20416;-61
2022/10/17 02:37:43;;;;;;;17.65;11.20;;;;;;;10.13;52.56;102789.88;5032351;28;20483;-60
2022/10/17 02:40:11;;;;;;;11.45;7.18;;;;;;;10.08;52.57;102789.38;5046758;28;20389;-62
2022/10/17 02:42:38;;;;;;;11.60;9.20;;;;;;;10.08;52.54;102790.25;5046436;28;20386;-61
2022/10/17 02:45:40;;;;;;;12.50;9.65;;;;;;;10.04;52.44;102796.72;5080107;27;20400;-60
2022/10/17 02:48:21;;;;;;;12.07;9.75;;;;;;;9.98;52.28;102789.22;5035933;28;20406;-60
2022/10/17 02:51:01;;;;;;;14.25;10.27;;;;;;;9.98;52.27;102796.34;5046814;28;20443;-61
2022/10/17 02:55:22;;;;;;;13.73;8.25;;;;;;;9.96;52.84;102812.34;5082510;27;20403;-60
2022/10/17 02:59:40;;;;;;;19.52;16.90;;;;;;;9.92;52.85;102819.69;5081064;27;20503;-61
2022/10/17 03:02:06;;;;;;;13.90;9.43;;;;;;;9.88;52.84;102815.53;5026463;28;20400;-61
2022/10/17 03:04:32;;;;;;;11.38;8.43;;;;;;;9.90;52.70;102821.59;5026910;28;20754;-63
2022/10/17 03:06:58;;;;;;;13.97;7.80;;;;;;;9.90;52.69;102815.44;5026677;28;20873;-61
2022/10/17 03:09:24;;;;;;;11.95;7.70;;;;;;;9.91;53.21;102819.78;5026821;28;20386;-63
2022/10/17 03:11:49;;;;;;;13.90;8.07;;;;;;;9.88;53.09;102822.66;5025070;28;20418;-62
2022/10/17 03:14:15;;;;;;;9.57;7.40;;;;;;;9.88;52.75;102822.66;5025696;28;20774;-60
2022/10/17 03:16:41;;;;;;;13.23;7.95;;;;;;;9.88;52.88;102812.91;5026242;28;20893;-61
2022/10/17 03:19:06;;;;;;;10.27;7.97;;;;;;;9.82;52.72;102813.38;5026050;28;20415;-61
2022/10/17 03:24:40;;;;;;;10.77;8.10;;;;;;;9.80;53.02;102815.28;5069156;27;20480;-60
2022/10/17 03:27:58;;;;;;;14.65;9.38;;;;;;;9.85;52.91;102813.16;5062055;27;20569;-61
2022/10/17 03:31:22;;;;;;;11.18;8.27;;;;;;;9.80;53.32;102811.81;5067900;27;20416;-60
2022/10/17 03:33:47;;;;;;;16.48;11.63;;;;;;;9.79;53.04;102813.59;5044836;28;20456;-60
2022/10/17 03:38:46;;;;;;;17.35;15.43;;;;;;;9.80;53.48;102819.75;5062940;27;20405;-61
2022/10/17 03:41:13;;;;;;;16.30;11.75;;;;;;;9.76;53.26;102825.25;5025913;28;20874;-61
2022/10/17 03:43:38;;;;;;;46.03;41.88;;;;;;;9.73;53.59;102825.47;5026315;28;20391;-61
2022/10/17 03:46:46;;;;;;;21.70;18.35;;;;;;;9.75;53.07;102842.09;5084677;27;20418;-61
2022/10/17 03:51:36;;;;;;;12.50;9.55;;;;;;;9.71;53.13;102840.63;5077162;27;20412;-61
2022/10/17 03:54:02;;;;;;;11.48;8.07;;;;;;;9.67;53.04;102836.53;5045048;28;20428;-61
2022/10/17 03:56:28;;;;;;;14.40;10.80;;;;;;;9.63;53.59;102831.56;5033431;28;20905;-60
2022/10/17 04:01:37;;;;;;;12.70;8.45;;;;;;;9.65;53.37;102843.75;5072430;27;20393;-61
2022/10/17 04:04:02;;;;;;;10.50;7.82;;;;;;;9.59;53.19;102846.81;5025588;28;20399;-61
2022/10/17 04:06:28;;;;;;;12.48;8.27;;;;;;;9.55;53.23;102848.84;5025740;28;20395;-61
2022/10/17 04:10:04;;;;;;;11.45;7.70;;;;;;;9.48;54.00;102852.06;5070395;27;20500;-64
2022/10/17 04:12:30;;;;;;;11.53;7.67;;;;;;;9.49;53.99;102854.59;5045856;28;20475;-63
2022/10/17 04:14:56;;;;;;;13.33;7.73;;;;;;;9.50;53.53;102855.44;5006403;28;20431;-61
2022/10/17 04:17:21;;;;;;;15.02;8.90;;;;;;;9.46;53.35;102856.63;5023132;28;20403;-62
2022/10/17 04:19:48;;;;;;;12.43;8.33;;;;;;;9.49;53.55;102862.53;5023931;28;20399;-64
2022/10/17 04:22:13;;;;;;;17.10;7.93;;;;;;;9.46;53.65;102865.41;5022825;28;20398;-61
2022/10/17 04:24:39;;;;;;;13.70;8.67;;;;;;;9.40;53.43;102868.50;5024785;28;20809;-62
2022/10/17 04:27:41;;;;;;;15.75;8.00;;;;;;;9.39;53.76;102864.16;5076435;27;20492;-61
2022/10/17 04:30:07;;;;;;;16.10;9.00;;;;;;;9.36;53.90;102865.22;5029936;28;20631;-61
2022/10/17 04:32:36;;;;;;;10.68;8.18;;;;;;;9.36;53.51;102865.22;5023582;28;20399;-61
2022/10/17 04:35:02;;;;;;;11.70;8.18;;;;;;;9.40;53.65;102876.44;5025399;28;20398;-61
2022/10/17 04:37:28;;;;;;;13.25;8.70;;;;;;;9.35;53.46;102874.09;5026120;28;20751;-61
2022/10/17 04:39:53;;;;;;;13.18;8.43;;;;;;;9.33;53.45;102873.38;5013501;28;20383;-61
2022/10/17 04:42:19;;;;;;;14.13;10.07;;;;;;;9.30;53.32;102883.31;5023065;28;20395;-61
2022/10/17 04:44:44;;;;;;;12.77;9.67;;;;;;;9.28;53.82;102886.06;5024767;28;20395;-63
2022/10/17 04:47:10;;;;;;;20.50;9.30;;;;;;;9.28;53.72;102877.28;5026206;28;20457;-61
2022/10/17 04:49:35;;;;;;;19.17;10.67;;;;;;;9.23;53.77;102874.97;5024478;28;20402;-63
2022/10/17 04:52:01;;;;;;;19.43;10.47;;;;;;;9.31;53.65;102893.81;5013930;28;20472;-62
2022/10/17 04:54:26;;;;;;;17.48;10.02;;;;;;;9.35;53.43;102889.97;5017513;28;20399;-60
2022/10/17 04:56:51;;;;;;;19.00;9.67;;;;;;;9.38;53.63;102894.19;5025551;28;20379;-61
2022/10/17 04:59:17;;;;;;;21.60;9.40;;;;;;;9.39;53.66;102887.97;5024264;28;20376;-61
2022/10/17 05:01:42;;;;;;;15.00;9.80;;;;;;;9.41;53.70;102887.84;5025257;28;20395;-61
2022/10/17 05:04:08;;;;;;;17.33;10.57;;;;;;;9.54;53.78;102902.78;5025346;28;20427;-61
2022/10/17 05:06:33;;;;;;;16.83;9.32;;;;;;;9.60;53.49;102900.63;5024315;28;20472;-61
2022/10/17 05:08:59;;;;;;;15.83;9.13;;;;;;;9.64;53.09;102899.47;5032687;28;20749;-62
2022/10/17 05:11:27;;;;;;;14.10;9.40;;;;;;;9.75;53.37;102908.31;5025708;28;20386;-61
2022/10/17 05:16:09;;;;;;;18.30;11.02;;;;;;;9.89;52.70;102911.78;5066758;27;20413;-61
2022/10/17 05:18:35;;;;;;;16.45;10.68;;;;;;;10.00;52.69;102917.13;5026343;28;20410;-61
2022/10/17 05:22:50;;;;;;;17.83;11.37;;;;;;;10.27;51.73;102922.22;5119554;27;855780;-61
2022/10/17 05:25:15;;;;;;;18.43;11.03;;;;;;;10.41;51.94;102923.03;5148026;27;20957;-60
2022/10/17 05:28:42;;;;;;;18.95;11.90;;;;;;;10.61;51.04;102925.03;5080891;27;20408;-61
2022/10/17 05:31:09;;;;;;;17.95;10.95;;;;;;;10.75;50.82;102928.44;5046616;28;20405;-62
2022/10/17 05:33:35;;;;;;;16.73;10.85;;;;;;;10.92;50.47;102937.78;5045155;28;20389;-61
2022/10/17 05:36:51;;;;;;;17.38;10.13;;;;;;;11.13;50.16;102933.47;5152611;27;20400;-61
2022/10/17 05:39:18;;;;;;;17.50;9.93;;;;;;;11.32;49.54;102935.53;5115316;27;20765;-60
2022/10/17 05:45:45;;;;;;;13.57;8.73;;;;;;;11.67;48.15;102943.38;5063188;27;20792;-62
2022/10/17 05:48:11;;;;;;;14.70;8.90;;;;;;;11.84;47.75;102955.28;5025909;28;20908;-63
2022/10/17 05:50:36;;;;;;;13.63;8.30;;;;;;;11.93;47.41;102948.44;5026432;28;20506;-61
2022/10/17 05:53:02;;;;;;;15.17;8.30;;;;;;;12.08;47.12;102954.31;5025870;28;20379;-60
2022/10/17 05:55:27;;;;;;;14.47;9.17;;;;;;;12.14;46.75;102947.66;5025140;28;20383;-61
2022/10/17 05:57:53;;;;;;;15.50;9.03;;;;;;;12.17;46.78;102958.91;5025364;28;20893;-62
2022/10/17 06:00:20;;;;;;;15.63;8.95;;;;;;;12.31;46.48;102964.88;5026145;28;20434;-61
2022/10/17 06:02:46;;;;;;;14.13;9.93;;;;;;;12.39;46.43;102962.47;5026380;28;20439;-61
2022/10/17 06:05:12;;;;;;;15.68;9.95;;;;;;;12.47;46.25;102964.47;5022626;28;20407;-62
2022/10/17 06:07:38;;;;;;;15.93;10.48;;;;;;;12.53;46.12;102969.28;5025420;28;20908;-61
2022/10/17 06:10:04;;;;;;;16.23;10.57;;;;;;;12.70;45.92;102967.88;5024797;28;20387;-61
2022/10/17 06:12:29;;;;;;;15.45;10.93;;;;;;;12.81;45.83;102973.97;5025500;28;20392;-61
2022/10/17 06:14:55;;;;;;;19.80;11.83;;;;;;;12.93;45.73;102977.44;5021996;28;20434;-62
2022/10/17 06:17:20;;;;;;;21.20;11.77;;;;;;;13.05;45.72;102977.34;5025397;28;20394;-62
2022/10/17 06:19:46;;;;;;;20.87;11.87;;;;;;;13.25;45.64;102988.97;5025750;28;20769;-61
2022/10/17 06:23:58;;;;;;;18.00;11.65;;;;;;;13.57;45.48;102980.88;5067591;27;20789;-61
2022/10/17 06:26:24;;;;;;;18.30;11.50;;;;;;;13.74;44.92;102984.75;5026518;28;20905;-62
2022/10/17 06:28:50;;;;;;;18.80;10.10;;;;;;;13.92;44.84;102987.63;5025730;28;20450;-61
2022/10/17 06:31:16;;;;;;;18.57;10.77;;;;;;;13.90;44.54;102985.06;5025869;28;20419;-62
2022/10/17 06:33:42;;;;;;;19.38;11.18;;;;;;;14.02;44.60;102990.28;5026405;28;20441;-61
2022/10/17 06:36:12;;;;;;;17.87;10.03;;;;;;;14.05;44.84;102990.03;5026239;28;20383;-61
2022/10/17 06:38:38;;;;;;;18.30;10.17;;;;;;;14.03;44.89;102989.31;5022733;28;20399;-61
2022/10/17 06:41:09;;;;;;;18.27;10.27;;;;;;;13.99;44.94;102990.56;5025040;28;20402;-62
2022/10/17 06:43:35;;;;;;;14.23;9.35;;;;;;;13.98;45.20;102989.72;5024564;28;20924;-61
2022/10/17 06:47:05;;;;;;;20.00;11.10;;;;;;;14.02;45.34;102988.47;5083197;27;20987;-61
2022/10/17 06:49:33;;;;;;;12.75;10.52;;;;;;;14.16;46.01;102995.22;5027233;28;20403;-61
2022/10/17 06:53:09;;;;;;;21.55;11.63;;;;;;;14.24;45.86;102992.72;5072419;27;20407;-62
2022/10/17 06:55:35;;;;;;;16.90;11.35;;;;;;;14.34;45.71;102995.41;5054866;28;20401;-61
2022/10/17 06:58:00;;;;;;;17.90;11.30;;;;;;;14.40;45.69;102997.50;5046562;28;20430;-61
2022/10/17 07:00:25;;;;;;;16.57;11.87;;;;;;;14.62;45.58;102998.25;5046366;28;20392;-62
2022/10/17 07:02:51;;;;;;;13.53;10.80;;;;;;;14.65;45.59;102996.13;5049172;28;20897;-61
2022/10/17 07:05:18;;;;;;;17.02;11.05;;;;;;;14.59;45.68;102998.53;5046536;28;20891;-63
2022/10/17 07:07:44;;;;;;;15.07;11.23;;;;;;;14.61;45.86;103002.75;5046108;28;20385;-62
2022/10/17 07:10:10;;;;;;;16.40;11.52;;;;;;;14.81;45.43;103002.75;5046477;28;20891;-62
2022/10/17 07:12:35;;;;;;;17.13;11.35;;;;;;;14.82;45.18;103007.09;5053644;28;20415;-61
2022/10/17 07:15:03;;;;;;;15.70;11.40;;;;;;;14.85;45.61;103010.31;5050118;28;20436;-61
2022/10/17 07:18:42;;;;;;;17.80;11.60;;;;;;;14.94;45.60;103011.28;5081661;27;20949;-61
2022/10/17 07:21:08;;;;;;;16.80;11.48;;;;;;;14.98;45.50;103014.53;5046554;28;20398;-61
2022/10/17 07:23:35;;;;;;;16.60;12.00;;;;;;;14.91;45.71;103014.28;5033565;28;20813;-61
2022/10/17 07:26:06;;;;;;;16.20;11.93;;;;;;;14.90;45.86;103015.25;5019983;28;20390;-61
2022/10/17 07:28:33;;;;;;;16.13;11.85;;;;;;;14.94;45.66;103018.47;5006104;28;20408;-59
2022/10/17 07:31:07;;;;;;;15.30;11.32;;;;;;;14.89;45.85;103022.41;5012134;28;20421;-60
2022/10/17 07:33:33;;;;;;;17.90;12.13;;;;;;;15.05;45.67;103024.53;5016191;28;20748;-60
2022/10/17 07:35:59;;;;;;;15.25;11.48;;;;;;;15.30;45.40;103030.22;5017184;28;20389;-60
2022/10/17 07:38:26;;;;;;;15.32;12.35;;;;;;;15.43;45.09;103028.09;5008966;28;20467;-61
2022/10/17 07:40:56;;;;;;;18.30;11.70;;;;;;;15.54;44.90;103021.72;5014053;28;20391;-60
2022/10/17 07:43:23;;;;;;;20.13;11.63;;;;;;;15.51;44.99;103026.50;5010943;28;20476;-59
2022/10/17 07:45:48;;;;;;;17.30;11.80;;;;;;;15.43;45.26;103024.53;5015516;28;20400;-59
2022/10/17 07:48:14;;;;;;;15.57;12.07;;;;;;;15.42;45.47;103020.22;5012116;28;20883;-61
2022/10/17 07:50:39;;;;;;;17.83;11.77;;;;;;;15.49;45.29;103011.44;5011807;28;20409;-61
2022/10/17 07:53:05;;;;;;;16.70;11.83;;;;;;;15.49;45.60;103019.47;5011778;28;20759;-61
2022/10/17 07:55:30;;;;;;;15.35;11.73;;;;;;;15.57;45.16;103018.72;5005514;28;20486;-61
2022/10/17 07:59:18;;;;;;;18.17;12.25;;;;;;;15.58;45.37;103011.56;5064896;27;20498;-61
2022/10/17 08:01:43;;;;;;;14.32;11.98;;;;;;;15.79;44.98;103011.34;5025495;28;20545;-61
2022/10/17 08:04:09;;;;;;;16.83;11.67;;;;;;;15.81;44.75;103015.59;5025164;28;20458;-60
2022/10/17 08:06:34;;;;;;;18.48;11.77;;;;;;;15.77;45.33;103014.19;5025833;28;20885;-60
2022/10/17 08:09:34;;;;;;;16.95;12.10;;;;;;;15.91;44.88;103020.88;5074132;27;20949;-61
2022/10/17 08:12:00;;;;;;;17.00;12.07;;;;;;;15.80;45.10;103019.22;5040333;28;20400;-61
2022/10/17 08:14:25;;;;;;;26.80;13.10;;;;;;;15.92;44.91;103024.38;5032418;28;20538;-61
2022/10/17 08:16:53;;;;;;;14.97;11.23;;;;;;;15.99;45.04;103023.66;5029535;28;20391;-63
2022/10/17 08:19:19;;;;;;;15.00;12.03;;;;;;;16.11;44.43;103024.28;5033516;28;20393;-62
2022/10/17 08:23:36;;;;;;;16.40;12.90;;;;;;;16.25;44.31;103023.75;5068791;27;20410;-62
2022/10/17 08:26:04;;;;;;;16.02;12.00;;;;;;;16.25;44.07;103014.91;5045639;28;20401;-60
2022/10/17 08:28:30;;;;;;;17.48;11.40;;;;;;;16.16;44.44;103021.16;5034432;28;20395;-62
2022/10/17 08:31:07;;;;;;;12.80;10.25;;;;;;;15.93;44.20;103013.53;5043594;28;20386;-61
2022/10/17 08:33:33;;;;;;;17.65;11.98;;;;;;;15.86;44.58;103015.97;5042616;28;20443;-63
2022/10/17 08:36:53;;;;;;;14.77;11.18;;;;;;;15.91;44.48;103014.69;5072361;27;20403;-60
2022/10/17 08:39:18;;;;;;;14.83;11.27;;;;;;;15.83;44.34;103018.13;5024074;28;20404;-61
2022/10/17 08:42:14;;;;;;;15.13;11.10;;;;;;;15.93;44.12;103024.22;5018980;28;20395;-61
2022/10/17 08:44:45;;;;;;;14.40;11.10;;;;;;;16.01;44.03;103018.16;5020824;28;20383;-62
2022/10/17 08:47:19;;;;;;;13.85;10.98;;;;;;;15.98;44.12;103019.28;5020154;28;20767;-61
2022/10/17 08:49:56;;;;;;;17.17;11.40;;;;;;;16.03;44.05;103018.84;5024416;28;20761;-62
2022/10/17 08:52:40;;;;;;;13.10;11.18;;;;;;;16.01;44.16;103013.63;5025397;28;20391;-62
2022/10/17 08:55:49;;;;;;;14.73;11.70;;;;;;;15.93;44.54;103013.53;5020191;28;20464;-63
2022/10/17 08:58:24;;;;;;;15.17;11.00;;;;;;;15.90;44.56;103010.31;5025805;28;20458;-61
2022/10/17 09:01:02;;;;;;;13.82;10.68;;;;;;;15.84;44.69;103009.91;5024173;28;20383;-61
2022/10/17 09:03:51;;;;;;;14.80;10.52;;;;;;;16.12;43.89;103015.28;5026443;28;20422;-62
2022/10/17 09:06:31;;;;;;;15.52;10.65;;;;;;;16.01;43.71;103012.81;5023453;28;20438;-62
2022/10/17 09:09:37;;;;;;;14.57;10.88;;;;;;;16.28;43.76;103019.09;5015088;28;20402;-61
2022/10/17 09:12:30;;;;;;;16.27;10.88;;;;;;;16.28;43.43;103014.59;5021665;28;20439;-61
2022/10/17 09:15:08;;;;;;;16.65;11.43;;;;;;;16.05;43.36;103015.03;5020558;28;20990;-62
2022/10/17 09:18:00;;;;;;;15.25;11.00;;;;;;;16.13;43.41;103018.78;5025908;28;20399;-60
2022/10/17 09:20:50;;;;;;;15.50;10.02;;;;;;;16.02;42.75;103014.47;5016248;28;20474;-61
2022/10/17 09:23:20;;;;;;;13.40;10.23;;;;;;;16.13;42.98;103016.94;5020495;28;20385;-61
2022/10/17 09:25:54;;;;;;;14.68;10.18;;;;;;;16.12;42.98;103004.56;5006521;28;20887;-61
2022/10/17 09:28:26;;;;;;;12.23;9.53;;;;;;;16.16;42.83;103011.28;5024782;28;20400;-61
2022/10/17 09:31:00;;;;;;;13.73;9.95;;;;;;;16.24;42.70;103014.06;5025816;28;20474;-61
2022/10/17 09:33:38;;;;;;;17.05;9.90;;;;;;;16.29;42.65;103010.09;5011283;28;20435;-61
2022/10/17 09:36:16;;;;;;;16.55;10.18;;;;;;;16.37;42.20;103007.50;5025949;28;20435;-60
2022/10/17 09:38:47;;;;;;;15.27;9.70;;;;;;;16.44;42.48;103000.56;5008286;28;20381;-61
2022/10/17 09:41:17;;;;;;;13.45;9.27;;;;;;;16.62;41.90;103008.59;5005894;28;20842;-61
2022/10/17 09:43:44;;;;;;;11.77;9.50;;;;;;;16.57;41.73;103013.56;5019661;28;20397;-62
2022/10/17 09:46:29;;;;;;;13.30;9.00;;;;;;;16.55;41.60;103008.34;5004609;28;20407;-61
2022/10/17 09:49:03;;;;;;;15.63;9.65;;;;;;;16.67;41.88;103010.78;4996335;28;20945;-61
2022/10/17 09:51:31;;;;;;;12.45;8.98;;;;;;;16.69;41.60;103001.63;5012704;28;20870;-61
2022/10/17 09:54:02;;;;;;;15.23;9.00;;;;;;;16.68;41.88;102997.25;5012196;28;20376;-62
2022/10/17 09:56:27;;;;;;;13.25;8.27;;;;;;;16.76;41.75;102997.31;5002537;28;20413;-60
2022/10/17 09:58:56;;;;;;;15.13;8.52;;;;;;;16.85;41.66;103003.59;5005980;28;20475;-62
2022/10/17 10:01:28;;;;;;;13.85;8.70;;;;;;;16.83;41.54;102986.84;5000609;28;20400;-60
2022/10/17 10:04:14;;;;;;;13.70;8.43;;;;;;;17.00;41.38;102990.50;5011721;28;20445;-63
2022/10/17 10:06:59;;;;;;;16.08;9.13;;;;;;;17.04;41.26;103002.56;5002710;28;20393;-60
2022/10/17 10:09:28;;;;;;;13.90;8.32;;;;;;;17.08;41.49;102992.38;5010518;28;20408;-60
2022/10/17 10:11:56;;;;;;;15.88;8.40;;;;;;;17.10;41.43;102990.38;5011827;28;20395;-60
2022/10/17 10:14:23;;;;;;;14.57;8.27;;;;;;;17.10;40.95;102979.66;5004846;28;20398;-60
2022/10/17 10:16:52;;;;;;;14.20;8.50;;;;;;;17.20;40.95;102980.41;4992381;28;20417;-60
2022/10/17 10:19:27;;;;;;;18.27;8.48;;;;;;;17.28;40.90;102969.72;5011744;28;20474;-61
2022/10/17 10:21:58;;;;;;;17.60;8.70;;;;;;;17.38;40.91;102973.13;4998705;28;20456;-61
2022/10/17 10:24:25;;;;;;;14.07;8.00;;;;;;;17.50;40.75;102978.19;4992321;28;20394;-62
2022/10/17 10:26:53;;;;;;;18.90;8.48;;;;;;;17.60;40.85;102970.88;4992184;28;20539;-61
2022/10/17 10:29:38;;;;;;;14.80;8.40;;;;;;;17.68;40.48;102970.06;4996167;28;20388;-61
2022/10/17 10:32:07;;;;;;;16.05;8.80;;;;;;;17.64;40.45;102966.03;5011601;28;20418;-61
2022/10/17 10:34:34;;;;;;;17.13;8.90;;;;;;;17.73;40.47;102967.72;4997042;28;20475;-61
2022/10/17 10:37:04;;;;;;;14.93;8.73;;;;;;;17.78;40.32;102963.56;5011704;28;20470;-60
2022/10/17 10:39:36;;;;;;;14.38;8.68;;;;;;;17.78;40.11;102954.69;4993104;28;20397;-62
2022/10/17 10:42:06;;;;;;;12.77;8.53;;;;;;;17.82;40.33;102958.72;5002474;28;20380;-61
2022/10/17 10:45:27;;;;;;;15.95;8.18;;;;;;;17.83;39.95;102949.66;5087286;27;20400;-60
2022/10/17 10:48:13;;;;;;;17.17;8.63;;;;;;;17.88;39.84;102952.75;5046183;28;20401;-60
2022/10/17 10:50:44;;;;;;;15.18;7.72;;;;;;;17.90;39.59;102947.22;5046466;28;20382;-60
2022/10/17 10:53:28;;;;;;;16.80;8.20;;;;;;;18.02;39.59;102939.66;5046409;28;20406;-60
2022/10/17 10:56:19;;;;;;;17.63;7.95;;;;;;;18.08;39.05;102947.91;5045262;28;20440;-61
2022/10/17 10:59:19;;;;;;;14.38;7.30;;;;;;;18.05;39.05;102932.13;5022714;28;20462;-61
2022/10/17 11:02:11;;;;;;;13.23;7.43;;;;;;;18.17;38.47;102939.84;5046240;28;20755;-60
2022/10/17 11:04:45;;;;;;;12.20;6.68;;;;;;;18.10;38.37;102932.47;5036956;28;20419;-60
2022/10/17 11:07:54;;;;;;;19.77;7.70;;;;;;;18.23;38.41;102928.47;5020772;28;20400;-60
2022/10/17 11:10:38;;;;;;;12.15;7.30;;;;;;;18.27;38.26;102922.59;5021027;28;20453;-60
2022/10/17 11:13:16;;;;;;;13.88;7.15;;;;;;;18.27;37.97;102917.22;5016003;28;20411;-60
2022/10/17 11:15:52;;;;;;;12.73;6.80;;;;;;;18.33;37.99;102913.88;5023537;28;20407;-62
2022/10/17 11:18:38;;;;;;;10.85;6.80;;;;;;;18.47;38.00;102912.34;5035269;28;20396;-63
2022/10/17 11:21:15;;;;;;;14.10;6.75;;;;;;;18.53;37.38;102898.25;5022594;28;20782;-61
2022/10/17 11:24:20;;;;;;;11.35;6.95;;;;;;;18.57;37.32;102900.63;5079485;27;20401;-61
2022/10/17 11:26:53;;;;;;;10.38;6.60;;;;;;;18.64;37.13;102898.91;5047179;28;20409;-61
2022/10/17 11:29:19;;;;;;;10.90;7.03;;;;;;;18.71;37.05;102905.28;5051975;28;20955;-61
2022/10/17 11:31:51;;;;;;;16.55;7.20;;;;;;;18.78;36.87;102897.38;5054069;28;20429;-61
2022/10/17 11:34:28;;;;;;;12.45;6.32;;;;;;;18.78;36.55;102887.47;5050107;28;20758;-61
2022/10/17 11:36:59;;;;;;;9.48;6.88;;;;;;;18.78;36.31;102884.78;5046362;28;20903;-60
2022/10/17 11:44:06;;;;;;;11.82;6.38;;;;;;;18.94;35.95;102869.66;5083576;27;20759;-62
2022/10/17 11:46:34;;;;;;;11.65;6.63;;;;;;;19.02;35.59;102875.00;5064611;28;20415;-61
2022/10/17 11:49:22;;;;;;;10.68;6.22;;;;;;;19.09;35.66;102873.31;5063423;28;20395;-61
2022/10/17 11:51:52;;;;;;;9.82;6.45;;;;;;;19.06;35.40;102870.97;5064211;28;20395;-62
2022/10/17 11:54:18;;;;;;;9.15;6.05;;;;;;;19.09;35.29;102873.31;5058216;28;20432;-61
2022/10/17 11:57:36;;;;;;;12.97;6.50;;;;;;;19.15;35.22;102866.41;5065330;28;20459;-62
2022/10/17 12:00:18;;;;;;;13.00;6.22;;;;;;;19.21;35.25;102860.31;5053353;28;20407;-61
2022/10/17 12:03:09;;;;;;;11.98;6.15;;;;;;;19.26;35.23;102860.63;5054528;28;20423;-62
2022/10/17 12:05:46;;;;;;;14.23;6.20;;;;;;;19.29;35.27;102863.78;5060745;28;20980;-61
2022/10/17 12:08:22;;;;;;;13.43;6.70;;;;;;;19.30;34.88;102856.56;5064983;28;20422;-61
2022/10/17 12:10:58;;;;;;;11.20;6.32;;;;;;;19.33;34.68;102852.69;5064993;28;20893;-60
2022/10/17 12:13:26;;;;;;;11.20;6.13;;;;;;;19.38;34.63;102859.22;5063324;28;20427;-61
2022/10/17 12:15:56;;;;;;;14.05;6.00;;;;;;;19.36;34.58;102846.97;5058417;28;20418;-61
2022/10/17 12:18:28;;;;;;;11.27;6.43;;;;;;;19.45;34.66;102846.75;5064156;28;20762;-63
2022/10/17 12:20:58;;;;;;;12.65;5.70;;;;;;;19.53;34.47;102850.41;5054662;28;20391;-59
2022/10/17 12:23:29;;;;;;;11.63;5.80;;;;;;;19.52;34.32;102846.03;5064233;28;20450;-61
2022/10/17 12:26:04;;;;;;;9.00;5.60;;;;;;;19.53;34.26;102853.09;5064298;28;20482;-63
2022/10/17 12:28:43;;;;;;;8.65;5.57;;;;;;;19.52;34.10;102854.09;5060777;28;20731;-62
2022/10/17 12:31:22;;;;;;;11.15;5.55;;;;;;;19.55;34.06;102842.97;5063877;28;20396;-61
2022/10/17 12:33:53;;;;;;;12.93;5.90;;;;;;;19.61;34.33;102845.81;5062434;28;20396;-61
2022/10/17 12:36:21;;;;;;;6.78;5.32;;;;;;;19.67;34.09;102853.16;5059114;28;20399;-60
2022/10/17 12:39:00;;;;;;;10.15;5.10;;;;;;;19.73;34.19;102848.94;5065118;28;20384;-61
2022/10/17 12:41:38;;;;;;;8.65;5.03;;;;;;;19.69;34.00;102831.47;5051639;28;20395;-61
2022/10/17 12:44:12;;;;;;;9.90;5.05;;;;;;;19.73;33.87;102843.56;5065288;28;20775;-61